sensor_id;sensor_type;location;lat;lon;timestamp;pressure;altitude;pressure_sealevel;temperature;humidity
47761;BME280;33524;55.434;38.520;2023-02-16T00:00:22;101160.13;;;-5.28;87.92
47761;BME280;33524;55.434;38.520;2023-02-16T00:02:57;101158.41;;;-5.32;88.11
47761;BME280;33524;55.434;38.520;2023-02-16T00:07:56;101149.84;;;-5.34;88.37
47761;BME280;33524;55.434;38.520;2023-02-16T00:10:26;101150.66;;;-5.43;88.82
47761;BME280;33524;55.434;38.520;2023-02-16T00:12:57;101159.25;;;-5.39;89.00
47761;BME280;33524;55.434;38.520;2023-02-16T00:15:46;101149.81;;;-5.42;89.08
47761;BME280;33524;55.434;38.520;2023-02-16T00:18:18;101150.66;;;-5.48;89.34
47761;BME280;33524;55.434;38.520;2023-02-16T00:20:48;101148.91;;;-5.49;89.56
47761;BME280;33524;55.434;38.520;2023-02-16T00:23:19;101158.34;;;-5.44;89.71
47761;BME280;33524;55.434;38.520;2023-02-16T00:25:47;101153.25;;;-5.41;89.38
47761;BME280;33524;55.434;38.520;2023-02-16T00:28:19;101147.19;;;-5.56;89.74
47761;BME280;33524;55.434;38.520;2023-02-16T00:30:48;101160.94;;;-5.41;90.20
47761;BME280;33524;55.434;38.520;2023-02-16T00:33:19;101154.09;;;-5.42;90.17
47761;BME280;33524;55.434;38.520;2023-02-16T00:35:48;101149.81;;;-5.43;90.29
47761;BME280;33524;55.434;38.520;2023-02-16T00:38:16;101152.34;;;-5.47;90.38
47761;BME280;33524;55.434;38.520;2023-02-16T00:40:44;101151.63;;;-5.15;89.66
47761;BME280;33524;55.434;38.520;2023-02-16T00:43:25;101153.25;;;-5.34;90.02
47761;BME280;33524;55.434;38.520;2023-02-16T00:45:54;101124.94;;;-5.58;90.26
47761;BME280;33524;55.434;38.520;2023-02-16T00:48:24;101149.03;;;-5.30;90.11
47761;BME280;33524;55.434;38.520;2023-02-16T00:50:52;101147.22;;;-5.50;90.13
47761;BME280;33524;55.434;38.520;2023-02-16T00:53:20;101149.84;;;-5.39;90.53
47761;BME280;33524;55.434;38.520;2023-02-16T00:55:48;101148.94;;;-5.45;90.59
47761;BME280;33524;55.434;38.520;2023-02-16T00:58:28;101150.59;;;-5.55;90.79
47761;BME280;33524;55.434;38.520;2023-02-16T01:01:04;101148.06;;;-5.49;90.73
47761;BME280;33524;55.434;38.520;2023-02-16T01:03:33;101148.87;;;-5.55;90.71
47761;BME280;33524;55.434;38.520;2023-02-16T01:06:04;101149.75;;;-5.56;90.82
47761;BME280;33524;55.434;38.520;2023-02-16T01:08:52;101159.22;;;-5.45;91.00
47761;BME280;33524;55.434;38.520;2023-02-16T01:11:40;101153.13;;;-5.61;90.90
47761;BME280;33524;55.434;38.520;2023-02-16T01:14:11;101154.00;;;-5.55;90.91
47761;BME280;33524;55.434;38.520;2023-02-16T01:16:40;101157.38;;;-5.65;91.00
47761;BME280;33524;55.434;38.520;2023-02-16T01:19:11;101157.44;;;-5.53;91.09
47761;BME280;33524;55.434;38.520;2023-02-16T01:21:39;101159.97;;;-5.59;90.75
47761;BME280;33524;55.434;38.520;2023-02-16T01:24:07;101154.81;;;-5.63;91.16
47761;BME280;33524;55.434;38.520;2023-02-16T01:26:45;101154.78;;;-5.70;91.32
47761;BME280;33524;55.434;38.520;2023-02-16T01:29:16;101154.75;;;-5.73;91.59
47761;BME280;33524;55.434;38.520;2023-02-16T01:31:48;101161.59;;;-5.73;91.77
47761;BME280;33524;55.434;38.520;2023-02-16T01:34:19;101156.53;;;-5.61;91.58
47761;BME280;33524;55.434;38.520;2023-02-16T01:36:47;101154.00;;;-5.58;91.66
47761;BME280;33524;55.434;38.520;2023-02-16T01:39:17;101152.31;;;-5.53;91.08
47761;BME280;33524;55.434;38.520;2023-02-16T01:45:03;101152.31;;;-5.56;91.24
47761;BME280;33524;55.434;38.520;2023-02-16T01:47:46;101158.19;;;-5.69;91.41
47761;BME280;33524;55.434;38.520;2023-02-16T01:52:59;101169.41;;;-5.55;91.04
47761;BME280;33524;55.434;38.520;2023-02-16T01:55:33;101165.87;;;-5.72;91.72
47761;BME280;33524;55.434;38.520;2023-02-16T01:58:14;101159.94;;;-5.68;91.59
47761;BME280;33524;55.434;38.520;2023-02-16T02:03:22;101162.47;;;-5.70;91.97
47761;BME280;33524;55.434;38.520;2023-02-16T02:06:20;101160.91;;;-5.48;91.42
47761;BME280;33524;55.434;38.520;2023-02-16T02:11:37;101169.37;;;-5.56;91.33
47761;BME280;33524;55.434;38.520;2023-02-16T02:14:19;101153.06;;;-5.72;91.57
47761;BME280;33524;55.434;38.520;2023-02-16T02:16:55;101165.16;;;-5.48;91.54
47761;BME280;33524;55.434;38.520;2023-02-16T02:19:24;101165.13;;;-5.56;91.50
47761;BME280;33524;55.434;38.520;2023-02-16T02:27:52;101143.75;;;-5.58;90.97
47761;BME280;33524;55.434;38.520;2023-02-16T02:30:54;101165.19;;;-5.43;90.50
47761;BME280;33524;55.434;38.520;2023-02-16T02:34:01;101154.00;;;-5.58;90.69
47761;BME280;33524;55.434;38.520;2023-02-16T02:36:48;101173.66;;;-5.52;91.20
47761;BME280;33524;55.434;38.520;2023-02-16T02:39:34;101171.94;;;-5.55;91.08
47761;BME280;33524;55.434;38.520;2023-02-16T02:42:32;101172.81;;;-5.56;91.44
47761;BME280;33524;55.434;38.520;2023-02-16T02:45:11;101171.19;;;-5.41;90.84
47761;BME280;33524;55.434;38.520;2023-02-16T02:47:44;101158.22;;;-5.64;91.29
47761;BME280;33524;55.434;38.520;2023-02-16T02:53:11;101172.94;;;-5.37;90.84
47761;BME280;33524;55.434;38.520;2023-02-16T02:55:44;101169.47;;;-5.45;90.52
47761;BME280;33524;55.434;38.520;2023-02-16T02:58:34;101168.53;;;-5.55;90.78
47761;BME280;33524;55.434;38.520;2023-02-16T03:01:23;101162.53;;;-5.59;91.27
47761;BME280;33524;55.434;38.520;2023-02-16T03:03:54;101155.63;;;-5.72;91.41
47761;BME280;33524;55.434;38.520;2023-02-16T03:06:35;101166.72;;;-5.69;91.65
47761;BME280;33524;55.434;38.520;2023-02-16T03:09:11;101165.91;;;-5.63;91.80
47761;BME280;33524;55.434;38.520;2023-02-16T03:11:44;101159.16;;;-5.50;91.61
47761;BME280;33524;55.434;38.520;2023-02-16T03:14:36;101160.03;;;-5.50;91.40
47761;BME280;33524;55.434;38.520;2023-02-16T03:17:12;101151.50;;;-5.49;90.91
47761;BME280;33524;55.434;38.520;2023-02-16T03:20:04;101142.00;;;-5.68;91.42
47761;BME280;33524;55.434;38.520;2023-02-16T03:22:51;101154.84;;;-5.62;91.73
47761;BME280;33524;55.434;38.520;2023-02-16T03:25:38;101152.25;;;-5.68;91.80
47761;BME280;33524;55.434;38.520;2023-02-16T03:28:29;101161.56;;;-5.75;91.98
47761;BME280;33524;55.434;38.520;2023-02-16T03:31:22;101172.63;;;-5.86;92.47
47761;BME280;33524;55.434;38.520;2023-02-16T03:33:54;101170.88;;;-5.91;92.64
47761;BME280;33524;55.434;38.520;2023-02-16T03:36:28;101170.06;;;-5.79;92.20
47761;BME280;33524;55.434;38.520;2023-02-16T03:38:58;101170.88;;;-5.91;92.50
47761;BME280;33524;55.434;38.520;2023-02-16T03:41:32;101164.06;;;-5.85;92.77
47761;BME280;33524;55.434;38.520;2023-02-16T03:44:00;101168.31;;;-5.88;92.59
47761;BME280;33524;55.434;38.520;2023-02-16T03:46:29;101166.59;;;-5.96;92.69
47761;BME280;33524;55.434;38.520;2023-02-16T03:48:58;101163.16;;;-5.98;92.66
47761;BME280;33524;55.434;38.520;2023-02-16T03:51:25;101164.94;;;-5.82;92.65
47761;BME280;33524;55.434;38.520;2023-02-16T03:53:54;101164.00;;;-5.99;92.74
47761;BME280;33524;55.434;38.520;2023-02-16T03:56:22;101147.78;;;-6.01;92.82
47761;BME280;33524;55.434;38.520;2023-02-16T03:58:49;101153.72;;;-6.02;92.79
47761;BME280;33524;55.434;38.520;2023-02-16T04:01:18;101152.91;;;-5.98;92.61
47761;BME280;33524;55.434;38.520;2023-02-16T04:03:46;101156.34;;;-5.96;92.78
47761;BME280;33524;55.434;38.520;2023-02-16T04:06:14;101151.16;;;-6.04;92.87
47761;BME280;33524;55.434;38.520;2023-02-16T04:08:42;101144.38;;;-5.99;92.78
47761;BME280;33524;55.434;38.520;2023-02-16T04:11:13;101152.03;;;-6.02;92.79
47761;BME280;33524;55.434;38.520;2023-02-16T04:14:00;101152.91;;;-5.92;92.43
47761;BME280;33524;55.434;38.520;2023-02-16T04:16:28;101122.88;;;-6.19;92.69
47761;BME280;33524;55.434;38.520;2023-02-16T04:18:56;101146.88;;;-6.05;92.54
47761;BME280;33524;55.434;38.520;2023-02-16T04:21:24;101151.28;;;-5.81;92.48
47761;BME280;33524;55.434;38.520;2023-02-16T04:23:52;101158.13;;;-5.81;92.06
47761;BME280;33524;55.434;38.520;2023-02-16T04:26:20;101142.72;;;-5.83;91.97
47761;BME280;33524;55.434;38.520;2023-02-16T04:28:48;101158.09;;;-5.86;91.68
47761;BME280;33524;55.434;38.520;2023-02-16T04:31:16;101162.44;;;-5.71;91.68
47761;BME280;33524;55.434;38.520;2023-02-16T04:33:47;101158.16;;;-5.75;91.71
47761;BME280;33524;55.434;38.520;2023-02-16T04:36:15;101157.34;;;-5.70;91.40
47761;BME280;33524;55.434;38.520;2023-02-16T04:38:43;101160.88;;;-5.49;91.36
47761;BME280;33524;55.434;38.520;2023-02-16T04:41:11;101141.16;;;-5.62;91.30
47761;BME280;33524;55.434;38.520;2023-02-16T04:43:39;101165.91;;;-5.66;90.82
47761;BME280;33524;55.434;38.520;2023-02-16T04:46:07;101168.50;;;-5.58;91.19
47761;BME280;33524;55.434;38.520;2023-02-16T04:48:38;101159.88;;;-5.71;91.01
47761;BME280;33524;55.434;38.520;2023-02-16T04:51:06;101164.22;;;-5.64;91.30
47761;BME280;33524;55.434;38.520;2023-02-16T04:53:34;101166.06;;;-5.41;90.74
47761;BME280;33524;55.434;38.520;2023-02-16T04:56:02;101165.00;;;-5.74;91.27
47761;BME280;33524;55.434;38.520;2023-02-16T04:58:30;101165.16;;;-5.47;91.48
47761;BME280;33524;55.434;38.520;2023-02-16T05:00:58;101161.00;;;-5.28;90.69
47761;BME280;33524;55.434;38.520;2023-02-16T05:03:25;101161.84;;;-5.33;90.26
47761;BME280;33524;55.434;38.520;2023-02-16T05:05:54;101163.56;;;-5.26;90.35
47761;BME280;33524;55.434;38.520;2023-02-16T05:08:22;101158.38;;;-5.41;90.94
47761;BME280;33524;55.434;38.520;2023-02-16T05:10:50;101154.06;;;-5.49;91.02
47761;BME280;33524;55.434;38.520;2023-02-16T05:13:38;101148.91;;;-5.52;91.75
47761;BME280;33524;55.434;38.520;2023-02-16T05:16:24;101159.25;;;-5.39;91.06
47761;BME280;33524;55.434;38.520;2023-02-16T05:18:53;101156.69;;;-5.39;91.50
47761;BME280;33524;55.434;38.520;2023-02-16T05:21:24;101150.53;;;-5.66;91.86
47761;BME280;33524;55.434;38.520;2023-02-16T05:24:01;101149.78;;;-5.48;92.11
47761;BME280;33524;55.434;38.520;2023-02-16T05:26:30;101153.25;;;-5.41;90.97
47761;BME280;33524;55.434;38.520;2023-02-16T05:28:59;101149.69;;;-5.63;92.17
47761;BME280;33524;55.434;38.520;2023-02-16T05:31:28;101160.94;;;-5.41;91.53
47761;BME280;33524;55.434;38.520;2023-02-16T05:33:56;101158.25;;;-5.58;91.87
47761;BME280;33524;55.434;38.520;2023-02-16T05:36:24;101159.19;;;-5.49;91.93
47761;BME280;33524;55.434;38.520;2023-02-16T05:38:52;101162.63;;;-5.43;91.50
47761;BME280;33524;55.434;38.520;2023-02-16T05:41:23;101155.81;;;-5.41;91.64
47761;BME280;33524;55.434;38.520;2023-02-16T05:43:57;101166.97;;;-5.30;91.21
47761;BME280;33524;55.434;38.520;2023-02-16T05:46:27;101169.44;;;-5.47;91.71
47761;BME280;33524;55.434;38.520;2023-02-16T05:48:56;101166.84;;;-5.50;91.94
47761;BME280;33524;55.434;38.520;2023-02-16T05:51:24;101168.69;;;-5.29;91.34
47761;BME280;33524;55.434;38.520;2023-02-16T05:53:53;101167.81;;;-5.34;91.37
47761;BME280;33524;55.434;38.520;2023-02-16T05:56:21;101172.06;;;-5.39;91.38
47761;BME280;33524;55.434;38.520;2023-02-16T05:58:49;101175.56;;;-5.19;91.38
47761;BME280;33524;55.434;38.520;2023-02-16T06:01:21;101173.00;;;-5.19;90.70
47761;BME280;33524;55.434;38.520;2023-02-16T06:03:50;101168.78;;;-5.12;90.55
47761;BME280;33524;55.434;38.520;2023-02-16T06:06:18;101161.06;;;-5.12;90.49
47761;BME280;33524;55.434;38.520;2023-02-16T06:08:46;101150.88;;;-4.92;89.72
47761;BME280;33524;55.434;38.520;2023-02-16T06:11:14;101167.22;;;-4.53;88.75
47761;BME280;33524;55.434;38.520;2023-02-16T06:14:13;101174.09;;;-4.48;88.45
47761;BME280;33524;55.434;38.520;2023-02-16T06:16:43;101168.94;;;-4.44;88.05
47761;BME280;33524;55.434;38.520;2023-02-16T06:19:12;101173.19;;;-4.70;88.64
47761;BME280;33524;55.434;38.520;2023-02-16T06:21:40;101179.25;;;-4.35;87.74
47761;BME280;33524;55.434;38.520;2023-02-16T06:24:10;101174.12;;;-4.18;87.47
47761;BME280;33524;55.434;38.520;2023-02-16T06:26:38;101163.84;;;-3.94;86.43
47761;BME280;33524;55.434;38.520;2023-02-16T06:29:07;101164.69;;;-3.86;85.92
47761;BME280;33524;55.434;38.520;2023-02-16T06:31:35;101159.53;;;-3.70;85.31
47761;BME280;33524;55.434;38.520;2023-02-16T06:34:04;101162.13;;;-3.78;85.18
47761;BME280;33524;55.434;38.520;2023-02-16T06:36:32;101167.25;;;-3.79;84.52
47761;BME280;33524;55.434;38.520;2023-02-16T06:39:02;101163.81;;;-3.61;84.17
47761;BME280;33524;55.434;38.520;2023-02-16T06:41:29;101164.66;;;-3.49;83.62
47761;BME280;33524;55.434;38.520;2023-02-16T06:43:59;101163.81;;;-3.61;83.57
47761;BME280;33524;55.434;38.520;2023-02-16T06:46:30;101150.09;;;-3.51;83.15
47761;BME280;33524;55.434;38.520;2023-02-16T06:48:59;101168.13;;;-3.94;84.14
47761;BME280;33524;55.434;38.520;2023-02-16T06:51:28;101142.41;;;-3.77;82.86
47761;BME280;33524;55.434;38.520;2023-02-16T06:53:56;101158.63;;;-3.38;82.68
47761;BME280;33524;55.434;38.520;2023-02-16T06:56:24;101157.81;;;-3.51;82.84
47761;BME280;33524;55.434;38.520;2023-02-16T06:58:52;101155.19;;;-3.40;81.90
47761;BME280;33524;55.434;38.520;2023-02-16T07:01:20;101147.41;;;-3.22;81.40
47761;BME280;33524;55.434;38.520;2023-02-16T07:03:56;101154.28;;;-3.27;80.86
47761;BME280;33524;55.434;38.520;2023-02-16T07:06:26;101159.53;;;-3.70;82.28
47761;BME280;33524;55.434;38.520;2023-02-16T07:08:55;101162.06;;;-3.50;81.83
47761;BME280;33524;55.434;38.520;2023-02-16T07:11:23;101156.81;;;-3.15;80.95
47761;BME280;33524;55.434;38.520;2023-02-16T07:13:50;101146.41;;;-2.90;79.73
47761;BME280;33524;55.434;38.520;2023-02-16T07:16:19;101149.66;;;-2.56;77.85
47761;BME280;33524;55.434;38.520;2023-02-16T07:18:47;101154.66;;;-2.33;76.71
47761;BME280;33524;55.434;38.520;2023-02-16T07:21:14;101154.12;;;-2.92;77.31
47761;BME280;33524;55.434;38.520;2023-02-16T07:23:46;101149.13;;;-3.18;78.68
47761;BME280;33524;55.434;38.520;2023-02-16T07:26:14;101146.53;;;-3.16;79.13
47761;BME280;33524;55.434;38.520;2023-02-16T07:28:42;101145.56;;;-2.91;78.22
47761;BME280;33524;55.434;38.520;2023-02-16T07:31:12;101154.03;;;-2.69;76.90
47761;BME280;33524;55.434;38.520;2023-02-16T07:33:41;101148.94;;;-2.75;76.48
47761;BME280;33524;55.434;38.520;2023-02-16T07:36:10;101151.53;;;-2.86;76.94
47761;BME280;33524;55.434;38.520;2023-02-16T07:38:42;101156.03;;;-3.34;76.95
47761;BME280;33524;55.434;38.520;2023-02-16T07:41:10;101151.63;;;-3.04;77.56
47761;BME280;33524;55.434;38.520;2023-02-16T07:43:38;101159.34;;;-3.01;76.98
47761;BME280;33524;55.434;38.520;2023-02-16T07:46:09;101149.94;;;-3.13;77.76
47761;BME280;33524;55.434;38.520;2023-02-16T07:48:37;101155.94;;;-3.11;77.29
47761;BME280;33524;55.434;38.520;2023-02-16T07:51:05;101151.69;;;-3.21;76.54
47761;BME280;33524;55.434;38.520;2023-02-16T07:53:34;101154.91;;;-2.71;76.18
47761;BME280;33524;55.434;38.520;2023-02-16T07:56:02;101135.34;;;-3.08;75.45
47761;BME280;33524;55.434;38.520;2023-02-16T07:58:30;101151.66;;;-3.10;74.51
47761;BME280;33524;55.434;38.520;2023-02-16T08:01:09;101147.84;;;-2.41;74.02
47761;BME280;33524;55.434;38.520;2023-02-16T08:03:40;101136.28;;;-1.94;73.31
47761;BME280;33524;55.434;38.520;2023-02-16T08:06:08;101143.53;;;-1.42;70.51
47761;BME280;33524;55.434;38.520;2023-02-16T08:08:37;101137.12;;;-1.09;68.58
47761;BME280;33524;55.434;38.520;2023-02-16T08:11:09;101143.47;;;-1.39;68.91
47761;BME280;33524;55.434;38.520;2023-02-16T08:13:38;101138.22;;;-2.19;70.00
47761;BME280;33524;55.434;38.520;2023-02-16T08:16:11;101130.34;;;-3.48;72.47
47761;BME280;33524;55.434;38.520;2023-02-16T08:18:39;101139.78;;;-3.45;74.23
47761;BME280;33524;55.434;38.520;2023-02-16T08:21:14;101142.09;;;-2.79;74.40
47761;BME280;33524;55.434;38.520;2023-02-16T08:23:54;101134.12;;;-2.47;72.78
47761;BME280;33524;55.434;38.520;2023-02-16T08:26:25;101135.75;;;-2.30;71.83
47761;BME280;33524;55.434;38.520;2023-02-16T08:28:56;101132.91;;;-1.98;69.87
47761;BME280;33524;55.434;38.520;2023-02-16T08:31:27;101131.13;;;-1.93;69.37
47761;BME280;33524;55.434;38.520;2023-02-16T08:33:59;101127.41;;;-1.63;72.10
47761;BME280;33524;55.434;38.520;2023-02-16T08:36:30;101132.94;;;-1.19;67.43
47761;BME280;33524;55.434;38.520;2023-02-16T08:39:02;101125.88;;;-1.03;65.99
47761;BME280;33524;55.434;38.520;2023-02-16T08:41:35;101126.50;;;-0.87;67.92
47761;BME280;33524;55.434;38.520;2023-02-16T08:44:07;101133.22;;;-0.75;68.82
47761;BME280;33524;55.434;38.520;2023-02-16T08:46:40;101129.38;;;-1.12;64.34
47761;BME280;33524;55.434;38.520;2023-02-16T08:49:10;101125.56;;;-0.82;65.45
47761;BME280;33524;55.434;38.520;2023-02-16T08:51:47;101120.94;;;-0.04;62.30
47761;BME280;33524;55.434;38.520;2023-02-16T08:54:18;101112.22;;;0.91;59.02
47761;BME280;33524;55.434;38.520;2023-02-16T08:56:47;101117.19;;;1.40;58.14
47761;BME280;33524;55.434;38.520;2023-02-16T08:59:18;101120.28;;;1.17;62.56
47761;BME280;33524;55.434;38.520;2023-02-16T09:01:47;101117.09;;;1.06;62.95
47761;BME280;33524;55.434;38.520;2023-02-16T09:04:16;101112.22;;;0.91;58.48
47761;BME280;33524;55.434;38.520;2023-02-16T09:06:46;101112.66;;;0.26;58.73
47761;BME280;33524;55.434;38.520;2023-02-16T09:09:19;101111.72;;;-0.76;60.74
47761;BME280;33524;55.434;38.520;2023-02-16T09:11:47;101129.78;;;-1.44;68.24
47761;BME280;33524;55.434;38.520;2023-02-16T09:14:18;101136.78;;;-2.57;65.17
47761;BME280;33524;55.434;38.520;2023-02-16T09:16:48;101132.63;;;-2.81;64.91
47761;BME280;33524;55.434;38.520;2023-02-16T09:19:18;101112.56;;;-2.32;64.38
47761;BME280;33524;55.434;38.520;2023-02-16T09:21:47;101128.37;;;-1.74;64.36
47761;BME280;33524;55.434;38.520;2023-02-16T09:24:17;101129.97;;;-1.61;62.77
47761;BME280;33524;55.434;38.520;2023-02-16T09:26:45;101132.28;;;-1.36;61.56
47761;BME280;33524;55.434;38.520;2023-02-16T09:29:14;101136.13;;;-1.00;60.92
47761;BME280;33524;55.434;38.520;2023-02-16T09:31:42;101115.81;;;-0.63;63.27
47761;BME280;33524;55.434;38.520;2023-02-16T09:34:20;101121.34;;;-0.30;64.52
47761;BME280;33524;55.434;38.520;2023-02-16T09:36:49;101119.62;;;-0.29;62.37
47761;BME280;33524;55.434;38.520;2023-02-16T09:39:17;101118.94;;;-0.39;60.19
47761;BME280;33524;55.434;38.520;2023-02-16T09:42:32;101115.56;;;-1.82;59.52
47761;BME280;33524;55.434;38.520;2023-02-16T09:45:09;101114.59;;;-2.77;61.49
47761;BME280;33524;55.434;38.520;2023-02-16T09:47:43;101106.19;;;-3.13;63.14
47761;BME280;33524;55.434;38.520;2023-02-16T09:50:20;101117.56;;;-3.71;65.28
47761;BME280;33524;55.434;38.520;2023-02-16T09:53:36;101122.66;;;-3.66;66.17
47761;BME280;33524;55.434;38.520;2023-02-16T09:59:58;101117.63;;;-4.17;67.71
47761;BME280;33524;55.434;38.520;2023-02-16T10:08:06;101110.12;;;-1.56;74.24
47761;BME280;33524;55.434;38.520;2023-02-16T10:10:48;101108.84;;;-1.98;65.75
47761;BME280;33524;55.434;38.520;2023-02-16T10:13:34;101115.75;;;-2.04;64.20
47761;BME280;33524;55.434;38.520;2023-02-16T10:16:05;101113.34;;;-2.19;62.07
47761;BME280;33524;55.434;38.520;2023-02-16T10:18:40;101108.94;;;-1.29;62.03
47761;BME280;33524;55.434;38.520;2023-02-16T10:21:16;101100.28;;;-1.22;61.99
47761;BME280;33524;55.434;38.520;2023-02-16T10:24:05;101111.09;;;-1.66;61.21
47761;BME280;33524;55.434;38.520;2023-02-16T10:26:45;101099.88;;;-1.62;60.25
47761;BME280;33524;55.434;38.520;2023-02-16T10:29:16;101103.94;;;-1.39;62.12
47761;BME280;33524;55.434;38.520;2023-02-16T10:34:49;101105.53;;;-1.29;59.01
47761;BME280;33524;55.434;38.520;2023-02-16T10:40:33;101093.28;;;0.00;67.41
47761;BME280;33524;55.434;38.520;2023-02-16T10:43:20;101096.81;;;0.41;66.57
47761;BME280;33524;55.434;38.520;2023-02-16T10:45:53;101090.78;;;0.86;63.42
47761;BME280;33524;55.434;38.520;2023-02-16T10:48:23;101099.00;;;0.63;64.67
47761;BME280;33524;55.434;38.520;2023-02-16T10:56:22;101100.03;;;-0.44;59.34
47761;BME280;33524;55.434;38.520;2023-02-16T10:58:55;101096.97;;;-0.68;63.93
47761;BME280;33524;55.434;38.520;2023-02-16T11:01:35;101109.62;;;-0.51;62.81
47761;BME280;33524;55.434;38.520;2023-02-16T11:04:05;101101.94;;;-0.55;61.07
47761;BME280;33524;55.434;38.520;2023-02-16T11:06:33;101104.72;;;-0.69;57.82
47761;BME280;33524;55.434;38.520;2023-02-16T11:09:02;101108.25;;;-1.42;59.58
47761;BME280;33524;55.434;38.520;2023-02-16T11:11:40;101110.12;;;-1.56;63.98
47761;BME280;33524;55.434;38.520;2023-02-16T11:14:23;101111.25;;;-2.91;61.24
47761;BME280;33524;55.434;38.520;2023-02-16T11:17:08;101104.63;;;-2.06;66.92
47761;BME280;33524;55.434;38.520;2023-02-16T11:19:46;101099.53;;;-2.13;63.02
47761;BME280;33524;55.434;38.520;2023-02-16T11:22:34;101102.09;;;-2.10;63.10
47761;BME280;33524;55.434;38.520;2023-02-16T11:25:19;101110.84;;;-2.33;62.82
47761;BME280;33524;55.434;38.520;2023-02-16T11:27:54;101109.56;;;-2.95;63.28
47761;BME280;33524;55.434;38.520;2023-02-16T11:30:28;101104.97;;;-2.50;62.88
47761;BME280;33524;55.434;38.520;2023-02-16T11:33:00;101099.16;;;-1.73;63.13
47761;BME280;33524;55.434;38.520;2023-02-16T11:35:31;101100.09;;;-1.08;70.94
47761;BME280;33524;55.434;38.520;2023-02-16T11:40:59;101073.75;;;-2.12;63.41
47761;BME280;33524;55.434;38.520;2023-02-16T11:43:40;101100.28;;;-2.04;68.58
47761;BME280;33524;55.434;38.520;2023-02-16T11:46:19;101103.09;;;-1.43;70.40
47761;BME280;33524;55.434;38.520;2023-02-16T11:48:51;101101.09;;;-1.97;72.24
47761;BME280;33524;55.434;38.520;2023-02-16T11:51:32;101095.09;;;-1.99;66.50
47761;BME280;33524;55.434;38.520;2023-02-16T11:54:04;101100.06;;;-1.79;65.04
47761;BME280;33524;55.434;38.520;2023-02-16T11:56:34;101094.91;;;-2.86;62.30
47761;BME280;33524;55.434;38.520;2023-02-16T11:59:19;101088.09;;;-2.93;64.28
47761;BME280;33524;55.434;38.520;2023-02-16T12:05:40;101095.63;;;-1.66;61.99
47761;BME280;33524;55.434;38.520;2023-02-16T12:10:56;101102.72;;;-1.87;65.86
47761;BME280;33524;55.434;38.520;2023-02-16T12:19:31;101097.75;;;-3.35;65.03
47761;BME280;33524;55.434;38.520;2023-02-16T12:28:08;101103.06;;;-2.25;63.40
47761;BME280;33524;55.434;38.520;2023-02-16T12:41:29;101114.87;;;-3.35;66.29
47761;BME280;33524;55.434;38.520;2023-02-16T12:44:08;101116.75;;;-4.03;68.08
47761;BME280;33524;55.434;38.520;2023-02-16T12:46:42;101114.06;;;-3.50;69.95
47761;BME280;33524;55.434;38.520;2023-02-16T12:49:22;101111.63;;;-4.05;67.33
47761;BME280;33524;55.434;38.520;2023-02-16T12:52:17;101117.59;;;-3.95;67.78
47761;BME280;33524;55.434;38.520;2023-02-16T12:54:53;101116.78;;;-4.17;67.02
47761;BME280;33524;55.434;38.520;2023-02-16T12:57:25;101113.19;;;-3.41;65.01
47761;BME280;33524;55.434;38.520;2023-02-16T13:00:36;101112.41;;;-3.71;65.38
47761;BME280;33524;55.434;38.520;2023-02-16T13:03:37;101127.03;;;-3.96;66.02
47761;BME280;33524;55.434;38.520;2023-02-16T13:06:20;101129.47;;;-3.42;70.09
47761;BME280;33524;55.434;38.520;2023-02-16T13:09:02;101117.53;;;-3.66;65.59
47761;BME280;33524;55.434;38.520;2023-02-16T13:14:12;101131.31;;;-3.90;65.62
47761;BME280;33524;55.434;38.520;2023-02-16T13:16:50;101105.63;;;-4.15;66.39
47761;BME280;33524;55.434;38.520;2023-02-16T13:19:20;101125.31;;;-4.09;67.25
47761;BME280;33524;55.434;38.520;2023-02-16T13:22:06;101126.16;;;-3.78;68.87
47761;BME280;33524;55.434;38.520;2023-02-16T13:28:15;101137.31;;;-4.27;69.89
47761;BME280;33524;55.434;38.520;2023-02-16T13:30:56;101135.59;;;-4.03;69.78
47761;BME280;33524;55.434;38.520;2023-02-16T13:44:13;101126.97;;;-2.06;78.42
47761;BME280;33524;55.434;38.520;2023-02-16T13:46:45;101135.47;;;-3.38;71.14
47761;BME280;33524;55.434;38.520;2023-02-16T13:49:32;101120.97;;;-3.59;72.62
47761;BME280;33524;55.434;38.520;2023-02-16T13:52:05;101123.31;;;-3.02;76.44
47761;BME280;33524;55.434;38.520;2023-02-16T13:54:40;101124.09;;;-2.90;77.37
47761;BME280;33524;55.434;38.520;2023-02-16T13:57:14;101128.47;;;-3.02;75.65
47761;BME280;33524;55.434;38.520;2023-02-16T14:00:03;101129.56;;;-3.70;77.73
47761;BME280;33524;55.434;38.520;2023-02-16T14:03:04;101132.97;;;-3.66;75.28
47761;BME280;33524;55.434;38.520;2023-02-16T14:05:39;101132.97;;;-3.61;73.04
47761;BME280;33524;55.434;38.520;2023-02-16T14:08:24;101144.94;;;-3.47;77.52
47761;BME280;33524;55.434;38.520;2023-02-16T14:10:59;101139.69;;;-3.27;81.79
47761;BME280;33524;55.434;38.520;2023-02-16T14:18:57;101146.63;;;-1.96;80.12
47761;BME280;33524;55.434;38.520;2023-02-16T14:21:41;101147.38;;;-1.86;78.16
47761;BME280;33524;55.434;38.520;2023-02-16T14:24:32;101149.00;;;-1.71;79.22
47761;BME280;33524;55.434;38.520;2023-02-16T14:27:08;101145.59;;;-1.78;79.33
47761;BME280;33524;55.434;38.520;2023-02-16T14:29:43;101150.25;;;-1.27;77.78
47761;BME280;33524;55.434;38.520;2023-02-16T14:32:30;101156.41;;;-1.40;76.77
47761;BME280;33524;55.434;38.520;2023-02-16T14:35:13;101147.72;;;-1.33;77.87
47761;BME280;33524;55.434;38.520;2023-02-16T14:38:00;101146.66;;;-1.97;79.85
47761;BME280;33524;55.434;38.520;2023-02-16T14:40:38;101122.75;;;-2.16;80.29
47761;BME280;33524;55.434;38.520;2023-02-16T14:43:31;101156.16;;;-2.06;79.50
47761;BME280;33524;55.434;38.520;2023-02-16T14:57:38;101136.16;;;-1.77;80.89
47761;BME280;33524;55.434;38.520;2023-02-16T15:00:29;101138.22;;;-2.16;77.61
47761;BME280;33524;55.434;38.520;2023-02-16T15:03:03;101140.69;;;-2.04;81.27
47761;BME280;33524;55.434;38.520;2023-02-16T15:05:48;101139.19;;;-2.33;83.03